sensor_id;sensor_type;location;lat;lon;timestamp;pressure;altitude;pressure_sealevel;temperature;humidity
39177;BME280;24904;52.208;21.192;2022-11-15T00:03:24;100983.13;;;7.49;78.95
39177;BME280;24904;52.208;21.192;2022-11-15T00:08:46;100979.20;;;7.51;79.09
39177;BME280;24904;52.208;21.192;2022-11-15T00:14:09;100970.94;;;7.53;79.12
39177;BME280;24904;52.208;21.192;2022-11-15T00:19:31;100965.08;;;7.54;79.07
39177;BME280;24904;52.208;21.192;2022-11-15T00:24:54;100960.02;;;7.54;79.08
39177;BME280;24904;52.208;21.192;2022-11-15T00:30:16;100949.77;;;7.54;79.07
39177;BME280;24904;52.208;21.192;2022-11-15T00:35:38;100943.89;;;7.52;79.15
39177;BME280;24904;52.208;21.192;2022-11-15T00:41:00;100938.20;;;7.50;79.15
39177;BME280;24904;52.208;21.192;2022-11-15T00:46:24;100928.59;;;7.50;79.22
39177;BME280;24904;52.208;21.192;2022-11-15T00:51:46;100917.86;;;7.51;79.21
39177;BME280;24904;52.208;21.192;2022-11-15T00:57:08;100909.78;;;7.47;79.07
39177;BME280;24904;52.208;21.192;2022-11-15T01:02:31;100903.30;;;7.40;78.98
39177;BME280;24904;52.208;21.192;2022-11-15T01:07:53;100887.33;;;7.39;79.23
39177;BME280;24904;52.208;21.192;2022-11-15T01:13:16;100882.20;;;7.35;79.34
39177;BME280;24904;52.208;21.192;2022-11-15T01:18:38;100881.96;;;7.30;79.35
39177;BME280;24904;52.208;21.192;2022-11-15T01:24:00;100876.52;;;7.20;79.49
39177;BME280;24904;52.208;21.192;2022-11-15T01:29:22;100875.40;;;7.18;79.69
39177;BME280;24904;52.208;21.192;2022-11-15T01:34:44;100862.15;;;7.16;79.87
39177;BME280;24904;52.208;21.192;2022-11-15T01:40:08;100846.55;;;7.16;80.03
39177;BME280;24904;52.208;21.192;2022-11-15T01:45:30;100838.04;;;7.18;80.06
39177;BME280;24904;52.208;21.192;2022-11-15T01:50:53;100828.30;;;7.19;80.07
39177;BME280;24904;52.208;21.192;2022-11-15T01:56:18;100816.93;;;7.19;80.14
39177;BME280;24904;52.208;21.192;2022-11-15T02:01:41;100817.31;;;7.21;80.10
39177;BME280;24904;52.208;21.192;2022-11-15T02:07:04;100820.58;;;7.21;80.15
39177;BME280;24904;52.208;21.192;2022-11-15T02:12:26;100812.27;;;7.20;80.24
39177;BME280;24904;52.208;21.192;2022-11-15T02:18:00;100811.08;;;7.21;80.31
39177;BME280;24904;52.208;21.192;2022-11-15T02:23:53;100803.79;;;7.23;80.36
39177;BME280;24904;52.208;21.192;2022-11-15T02:29:30;100794.48;;;7.20;80.18
39177;BME280;24904;52.208;21.192;2022-11-15T02:35:02;100792.66;;;7.19;80.27
39177;BME280;24904;52.208;21.192;2022-11-15T02:40:38;100792.38;;;7.18;80.27
39177;BME280;24904;52.208;21.192;2022-11-15T02:46:07;100794.53;;;7.17;80.44
39177;BME280;24904;52.208;21.192;2022-11-15T02:51:33;100789.37;;;7.17;80.47
39177;BME280;24904;52.208;21.192;2022-11-15T02:56:58;100784.96;;;7.18;80.55
39177;BME280;24904;52.208;21.192;2022-11-15T03:02:33;100778.52;;;7.21;80.64
39177;BME280;24904;52.208;21.192;2022-11-15T03:08:02;100769.71;;;7.21;80.51
39177;BME280;24904;52.208;21.192;2022-11-15T03:13:30;100760.27;;;7.19;80.54
39177;BME280;24904;52.208;21.192;2022-11-15T03:18:58;100754.71;;;7.16;80.53
39177;BME280;24904;52.208;21.192;2022-11-15T03:24:23;100751.59;;;7.13;80.55
39177;BME280;24904;52.208;21.192;2022-11-15T03:29:49;100744.92;;;7.15;80.67
39177;BME280;24904;52.208;21.192;2022-11-15T03:35:14;100731.32;;;7.17;80.74
39177;BME280;24904;52.208;21.192;2022-11-15T03:40:39;100717.11;;;7.16;80.64
39177;BME280;24904;52.208;21.192;2022-11-15T03:46:06;100712.45;;;7.11;80.69
39177;BME280;24904;52.208;21.192;2022-11-15T03:51:31;100706.33;;;7.13;80.76
39177;BME280;24904;52.208;21.192;2022-11-15T03:56:53;100697.27;;;7.12;80.87
39177;BME280;24904;52.208;21.192;2022-11-15T04:02:15;100689.81;;;7.11;80.92
39177;BME280;24904;52.208;21.192;2022-11-15T04:07:37;100687.83;;;7.12;80.97
39177;BME280;24904;52.208;21.192;2022-11-15T04:12:58;100682.30;;;7.10;80.81
39177;BME280;24904;52.208;21.192;2022-11-15T04:18:20;100676.08;;;7.05;80.87
39177;BME280;24904;52.208;21.192;2022-11-15T04:23:42;100676.84;;;7.04;80.99
39177;BME280;24904;52.208;21.192;2022-11-15T04:29:23;100674.87;;;7.02;80.87
39177;BME280;24904;52.208;21.192;2022-11-15T04:34:57;100667.94;;;6.89;80.69
39177;BME280;24904;52.208;21.192;2022-11-15T04:40:19;100659.38;;;6.85;80.95
39177;BME280;24904;52.208;21.192;2022-11-15T04:45:41;100655.04;;;6.80;81.00
39177;BME280;24904;52.208;21.192;2022-11-15T04:51:03;100656.36;;;6.77;81.13
39177;BME280;24904;52.208;21.192;2022-11-15T04:56:25;100655.58;;;6.73;81.20
39177;BME280;24904;52.208;21.192;2022-11-15T05:01:46;100648.15;;;6.70;81.23
39177;BME280;24904;52.208;21.192;2022-11-15T05:07:08;100649.88;;;6.70;81.50
39177;BME280;24904;52.208;21.192;2022-11-15T05:12:30;100646.54;;;6.73;81.51
39177;BME280;24904;52.208;21.192;2022-11-15T05:17:53;100644.02;;;6.75;81.52
39177;BME280;24904;52.208;21.192;2022-11-15T05:23:18;100639.62;;;6.78;81.59
39177;BME280;24904;52.208;21.192;2022-11-15T05:28:40;100630.94;;;6.77;81.49
39177;BME280;24904;52.208;21.192;2022-11-15T05:34:04;100629.86;;;6.78;81.72
39177;BME280;24904;52.208;21.192;2022-11-15T05:39:27;100628.38;;;6.78;81.56
39177;BME280;24904;52.208;21.192;2022-11-15T05:44:51;100633.14;;;6.74;81.61
39177;BME280;24904;52.208;21.192;2022-11-15T05:50:15;100632.73;;;6.72;81.51
39177;BME280;24904;52.208;21.192;2022-11-15T05:55:39;100633.45;;;6.73;81.83
39177;BME280;24904;52.208;21.192;2022-11-15T06:01:01;100630.79;;;6.73;81.73
39177;BME280;24904;52.208;21.192;2022-11-15T06:06:23;100628.42;;;6.70;81.85
39177;BME280;24904;52.208;21.192;2022-11-15T06:11:47;100626.59;;;6.71;81.74
39177;BME280;24904;52.208;21.192;2022-11-15T06:17:10;100631.40;;;6.67;81.79
39177;BME280;24904;52.208;21.192;2022-11-15T06:22:33;100633.37;;;6.68;81.84
39177;BME280;24904;52.208;21.192;2022-11-15T06:27:57;100637.20;;;6.71;82.13
39177;BME280;24904;52.208;21.192;2022-11-15T06:33:20;100638.67;;;6.74;81.98
39177;BME280;24904;52.208;21.192;2022-11-15T06:38:43;100633.38;;;6.71;81.87
39177;BME280;24904;52.208;21.192;2022-11-15T06:44:07;100638.64;;;6.70;82.00
39177;BME280;24904;52.208;21.192;2022-11-15T06:49:30;100636.50;;;6.71;82.07
39177;BME280;24904;52.208;21.192;2022-11-15T06:54:52;100635.50;;;6.69;82.05
39177;BME280;24904;52.208;21.192;2022-11-15T07:00:17;100640.26;;;6.69;82.22
39177;BME280;24904;52.208;21.192;2022-11-15T07:05:41;100645.56;;;6.69;82.31
39177;BME280;24904;52.208;21.192;2022-11-15T07:11:06;100646.23;;;6.73;82.34
39177;BME280;24904;52.208;21.192;2022-11-15T07:16:29;100641.25;;;6.78;82.39
39177;BME280;24904;52.208;21.192;2022-11-15T07:21:51;100637.46;;;6.82;82.39
39177;BME280;24904;52.208;21.192;2022-11-15T07:27:14;100635.66;;;6.84;82.04
39177;BME280;24904;52.208;21.192;2022-11-15T07:32:37;100640.07;;;6.80;82.03
39177;BME280;24904;52.208;21.192;2022-11-15T07:38:01;100637.48;;;6.80;81.99
39177;BME280;24904;52.208;21.192;2022-11-15T07:43:25;100635.88;;;6.81;81.94
39177;BME280;24904;52.208;21.192;2022-11-15T07:48:49;100628.25;;;6.79;81.88
39177;BME280;24904;52.208;21.192;2022-11-15T07:54:13;100625.01;;;6.77;81.85
39177;BME280;24904;52.208;21.192;2022-11-15T07:59:36;100630.71;;;6.77;81.98
39177;BME280;24904;52.208;21.192;2022-11-15T08:04:59;100623.14;;;6.73;81.91
39177;BME280;24904;52.208;21.192;2022-11-15T08:10:22;100614.57;;;6.73;81.96
39177;BME280;24904;52.208;21.192;2022-11-15T08:15:45;100609.98;;;6.76;81.91
39177;BME280;24904;52.208;21.192;2022-11-15T08:21:10;100600.45;;;6.73;81.88
39177;BME280;24904;52.208;21.192;2022-11-15T08:26:35;100598.91;;;6.73;82.04
39177;BME280;24904;52.208;21.192;2022-11-15T08:31:58;100590.89;;;6.76;81.92
39177;BME280;24904;52.208;21.192;2022-11-15T08:37:20;100590.52;;;6.80;81.95
39177;BME280;24904;52.208;21.192;2022-11-15T08:42:44;100590.28;;;6.79;81.74
39177;BME280;24904;52.208;21.192;2022-11-15T08:48:07;100584.73;;;6.81;81.77
39177;BME280;24904;52.208;21.192;2022-11-15T08:53:30;100582.98;;;6.80;81.45
39177;BME280;24904;52.208;21.192;2022-11-15T08:58:54;100579.89;;;6.81;81.41
39177;BME280;24904;52.208;21.192;2022-11-15T09:04:18;100573.75;;;6.81;81.49
39177;BME280;24904;52.208;21.192;2022-11-15T09:09:42;100577.79;;;6.87;81.46
39177;BME280;24904;52.208;21.192;2022-11-15T09:15:08;100576.02;;;6.93;81.46
39177;BME280;24904;52.208;21.192;2022-11-15T09:20:31;100570.02;;;6.93;81.41
39177;BME280;24904;52.208;21.192;2022-11-15T09:25:59;100560.09;;;6.92;81.28
39177;BME280;24904;52.208;21.192;2022-11-15T09:31:23;100547.41;;;6.85;80.87
39177;BME280;24904;52.208;21.192;2022-11-15T09:36:45;100544.57;;;6.84;81.05
39177;BME280;24904;52.208;21.192;2022-11-15T09:42:25;100536.65;;;6.85;80.89
39177;BME280;24904;52.208;21.192;2022-11-15T09:48:11;100527.59;;;6.82;80.93
39177;BME280;24904;52.208;21.192;2022-11-15T09:53:41;100513.14;;;6.82;81.14
39177;BME280;24904;52.208;21.192;2022-11-15T09:58:50;100512.91;;;6.92;81.04
39177;BME280;24904;52.208;21.192;2022-11-15T10:03:59;100508.09;;;6.93;81.03
39177;BME280;24904;52.208;21.192;2022-11-15T10:09:09;100503.81;;;6.93;81.24
39177;BME280;24904;52.208;21.192;2022-11-15T10:14:17;100501.58;;;6.92;81.02
39177;BME280;24904;52.208;21.192;2022-11-15T10:19:28;100498.42;;;6.85;81.02
39177;BME280;24904;52.208;21.192;2022-11-15T10:24:37;100504.21;;;6.82;81.10
39177;BME280;24904;52.208;21.192;2022-11-15T10:29:46;100508.98;;;6.83;81.21
39177;BME280;24904;52.208;21.192;2022-11-15T10:34:50;100502.54;;;6.84;81.05
39177;BME280;24904;52.208;21.192;2022-11-15T10:40:06;100491.02;;;6.85;81.09
39177;BME280;24904;52.208;21.192;2022-11-15T10:45:24;100494.16;;;6.86;81.04
39177;BME280;24904;52.208;21.192;2022-11-15T10:50:30;100479.83;;;6.83;81.12
39177;BME280;24904;52.208;21.192;2022-11-15T10:55:34;100474.14;;;6.87;81.21
39177;BME280;24904;52.208;21.192;2022-11-15T11:00:39;100473.02;;;6.88;81.18
39177;BME280;24904;52.208;21.192;2022-11-15T11:05:42;100470.69;;;6.94;81.25
39177;BME280;24904;52.208;21.192;2022-11-15T11:11:06;100461.46;;;7.02;81.20
39177;BME280;24904;52.208;21.192;2022-11-15T11:16:31;100455.10;;;7.01;81.14
39177;BME280;24904;52.208;21.192;2022-11-15T11:21:46;100447.68;;;7.03;81.07
39177;BME280;24904;52.208;21.192;2022-11-15T11:27:12;100443.59;;;7.01;81.01
39177;BME280;24904;52.208;21.192;2022-11-15T11:32:45;100445.59;;;7.03;81.18
39177;BME280;24904;52.208;21.192;2022-11-15T11:37:57;100443.45;;;7.03;81.09
39177;BME280;24904;52.208;21.192;2022-11-15T11:43:10;100441.15;;;7.01;81.07
39177;BME280;24904;52.208;21.192;2022-11-15T11:48:30;100430.65;;;6.99;81.13
39177;BME280;24904;52.208;21.192;2022-11-15T11:53:47;100427.51;;;6.98;81.07
39177;BME280;24904;52.208;21.192;2022-11-15T11:58:57;100416.29;;;6.96;81.27
39177;BME280;24904;52.208;21.192;2022-11-15T12:04:11;100404.80;;;7.03;81.50
39177;BME280;24904;52.208;21.192;2022-11-15T12:09:23;100398.27;;;7.07;81.39
39177;BME280;24904;52.208;21.192;2022-11-15T12:14:39;100384.16;;;7.11;81.51
39177;BME280;24904;52.208;21.192;2022-11-15T12:19:46;100381.31;;;7.16;81.43
39177;BME280;24904;52.208;21.192;2022-11-15T12:24:56;100382.29;;;7.20;81.33
39177;BME280;24904;52.208;21.192;2022-11-15T12:30:08;100382.10;;;7.22;81.29
39177;BME280;24904;52.208;21.192;2022-11-15T12:35:26;100377.35;;;7.26;81.32
39177;BME280;24904;52.208;21.192;2022-11-15T12:40:37;100367.92;;;7.27;81.31
39177;BME280;24904;52.208;21.192;2022-11-15T12:45:44;100365.48;;;7.29;81.25
39177;BME280;24904;52.208;21.192;2022-11-15T12:56:20;100361.35;;;7.35;81.22
39177;BME280;24904;52.208;21.192;2022-11-15T13:01:54;100362.77;;;7.29;80.93
39177;BME280;24904;52.208;21.192;2022-11-15T13:07:02;100346.55;;;7.27;81.16
39177;BME280;24904;52.208;21.192;2022-11-15T13:12:10;100349.23;;;7.24;81.09
39177;BME280;24904;52.208;21.192;2022-11-15T13:17:29;100350.20;;;7.23;80.97
39177;BME280;24904;52.208;21.192;2022-11-15T13:22:42;100348.74;;;7.24;81.24
39177;BME280;24904;52.208;21.192;2022-11-15T13:27:58;100340.88;;;7.29;81.34
39177;BME280;24904;52.208;21.192;2022-11-15T13:33:09;100338.52;;;7.23;81.11
39177;BME280;24904;52.208;21.192;2022-11-15T13:38:28;100335.20;;;7.25;81.25
39177;BME280;24904;52.208;21.192;2022-11-15T13:43:36;100325.46;;;7.29;81.28
39177;BME280;24904;52.208;21.192;2022-11-15T13:48:42;100323.84;;;7.33;81.11
39177;BME280;24904;52.208;21.192;2022-11-15T13:53:50;100319.63;;;7.36;81.07
39177;BME280;24904;52.208;21.192;2022-11-15T13:58:57;100314.95;;;7.41;81.14
39177;BME280;24904;52.208;21.192;2022-11-15T14:04:03;100308.33;;;7.45;81.14
39177;BME280;24904;52.208;21.192;2022-11-15T14:09:33;100309.05;;;7.49;80.98
39177;BME280;24904;52.208;21.192;2022-11-15T14:14:46;100314.45;;;7.49;80.72
39177;BME280;24904;52.208;21.192;2022-11-15T14:19:51;100310.79;;;7.43;80.48
39177;BME280;24904;52.208;21.192;2022-11-15T14:25:14;100298.36;;;7.38;80.70
39177;BME280;24904;52.208;21.192;2022-11-15T14:30:20;100298.98;;;7.45;80.80
39177;BME280;24904;52.208;21.192;2022-11-15T14:35:26;100296.70;;;7.42;80.46
39177;BME280;24904;52.208;21.192;2022-11-15T14:40:33;100292.27;;;7.38;80.35
39177;BME280;24904;52.208;21.192;2022-11-15T14:45:39;100290.37;;;7.37;80.44
39177;BME280;24904;52.208;21.192;2022-11-15T14:50:47;100289.73;;;7.36;80.61
39177;BME280;24904;52.208;21.192;2022-11-15T14:55:55;100287.05;;;7.35;80.50
39177;BME280;24904;52.208;21.192;2022-11-15T15:01:05;100289.94;;;7.39;80.72
39177;BME280;24904;52.208;21.192;2022-11-15T15:06:18;100290.67;;;7.40;80.78
39177;BME280;24904;52.208;21.192;2022-11-15T15:11:26;100294.45;;;7.42;80.44
39177;BME280;24904;52.208;21.192;2022-11-15T15:16:34;100286.29;;;7.43;80.49
39177;BME280;24904;52.208;21.192;2022-11-15T15:21:43;100282.02;;;7.44;80.51
39177;BME280;24904;52.208;21.192;2022-11-15T15:26:54;100282.84;;;7.42;80.60
39177;BME280;24904;52.208;21.192;2022-11-15T15:32:01;100284.03;;;7.44;80.40
39177;BME280;24904;52.208;21.192;2022-11-15T15:37:21;100272.03;;;7.37;80.31
39177;BME280;24904;52.208;21.192;2022-11-15T15:42:32;100267.73;;;7.33;80.35
39177;BME280;24904;52.208;21.192;2022-11-15T15:47:39;100275.96;;;7.38;80.53
39177;BME280;24904;52.208;21.192;2022-11-15T15:52:46;100271.20;;;7.35;80.24
39177;BME280;24904;52.208;21.192;2022-11-15T15:57:56;100263.94;;;7.25;80.42
39177;BME280;24904;52.208;21.192;2022-11-15T16:03:03;100269.22;;;7.27;80.38
39177;BME280;24904;52.208;21.192;2022-11-15T16:08:19;100262.08;;;7.18;80.24
39177;BME280;24904;52.208;21.192;2022-11-15T16:13:27;100255.71;;;7.06;80.22
39177;BME280;24904;52.208;21.192;2022-11-15T16:18:35;100257.34;;;6.95;80.45
39177;BME280;24904;52.208;21.192;2022-11-15T16:23:42;100253.98;;;6.92;80.64
39177;BME280;24904;52.208;21.192;2022-11-15T16:28:50;100261.11;;;6.90;80.60
39177;BME280;24904;52.208;21.192;2022-11-15T16:33:57;100254.69;;;6.89;80.78
39177;BME280;24904;52.208;21.192;2022-11-15T16:39:04;100247.15;;;6.90;80.86
39177;BME280;24904;52.208;21.192;2022-11-15T16:44:10;100251.73;;;6.92;81.03
39177;BME280;24904;52.208;21.192;2022-11-15T16:49:17;100253.75;;;6.92;80.95
39177;BME280;24904;52.208;21.192;2022-11-15T16:54:23;100257.70;;;6.85;80.89
39177;BME280;24904;52.208;21.192;2022-11-15T16:59:29;100263.23;;;6.80;80.91
39177;BME280;24904;52.208;21.192;2022-11-15T17:04:38;100257.40;;;6.78;80.81
39177;BME280;24904;52.208;21.192;2022-11-15T17:09:45;100259.30;;;6.82;81.13
39177;BME280;24904;52.208;21.192;2022-11-15T17:14:53;100256.88;;;6.86;80.99
39177;BME280;24904;52.208;21.192;2022-11-15T17:20:01;100253.11;;;6.85;81.14
39177;BME280;24904;52.208;21.192;2022-11-15T17:25:14;100245.95;;;6.82;81.13
39177;BME280;24904;52.208;21.192;2022-11-15T17:30:21;100240.88;;;6.78;81.04
39177;BME280;24904;52.208;21.192;2022-11-15T17:35:29;100245.47;;;6.75;81.18
39177;BME280;24904;52.208;21.192;2022-11-15T17:40:36;100242.08;;;6.67;81.25
39177;BME280;24904;52.208;21.192;2022-11-15T17:45:42;100244.53;;;6.69;81.27
39177;BME280;24904;52.208;21.192;2022-11-15T17:50:56;100240.06;;;6.67;81.38
39177;BME280;24904;52.208;21.192;2022-11-15T17:56:05;100240.36;;;6.58;81.02
39177;BME280;24904;52.208;21.192;2022-11-15T18:01:17;100247.37;;;6.51;80.96
39177;BME280;24904;52.208;21.192;2022-11-15T18:06:26;100245.95;;;6.45;81.29
39177;BME280;24904;52.208;21.192;2022-11-15T18:11:35;100238.96;;;6.46;81.39
39177;BME280;24904;52.208;21.192;2022-11-15T18:16:43;100232.42;;;6.48;81.49
39177;BME280;24904;52.208;21.192;2022-11-15T18:21:50;100223.42;;;6.38;81.22
39177;BME280;24904;52.208;21.192;2022-11-15T18:27:05;100223.98;;;6.33;81.57
39177;BME280;24904;52.208;21.192;2022-11-15T18:32:12;100224.16;;;6.31;81.36
39177;BME280;24904;52.208;21.192;2022-11-15T18:37:21;100219.14;;;6.29;81.57
39177;BME280;24904;52.208;21.192;2022-11-15T18:42:27;100217.32;;;6.25;81.49
39177;BME280;24904;52.208;21.192;2022-11-15T18:47:36;100221.91;;;6.21;81.63
39177;BME280;24904;52.208;21.192;2022-11-15T19:01:41;100227.70;;;6.32;81.31
39177;BME280;24904;52.208;21.192;2022-11-15T19:06:47;100232.99;;;6.32;81.30
39177;BME280;24904;52.208;21.192;2022-11-15T19:11:52;100231.23;;;6.24;81.27
39177;BME280;24904;52.208;21.192;2022-11-15T19:16:58;100224.30;;;6.20;81.31
39177;BME280;24904;52.208;21.192;2022-11-15T19:22:02;100215.96;;;6.12;81.44
39177;BME280;24904;52.208;21.192;2022-11-15T19:27:07;100206.41;;;6.07;81.37
39177;BME280;24904;52.208;21.192;2022-11-15T19:32:12;100203.80;;;6.09;81.76
39177;BME280;24904;52.208;21.192;2022-11-15T19:37:16;100215.05;;;6.10;81.79
39177;BME280;24904;52.208;21.192;2022-11-15T19:42:19;100211.25;;;6.13;81.94
39177;BME280;24904;52.208;21.192;2022-11-15T19:55:33;100208.55;;;6.03;81.38
39177;BME280;24904;52.208;21.192;2022-11-15T20:00:40;100201.97;;;6.04;81.67
39177;BME280;24904;52.208;21.192;2022-11-15T20:05:47;100198.23;;;6.12;81.82
39177;BME280;24904;52.208;21.192;2022-11-15T20:10:53;100192.89;;;6.08;81.36
39177;BME280;24904;52.208;21.192;2022-11-15T20:16:01;100182.77;;;6.05;81.72
39177;BME280;24904;52.208;21.192;2022-11-15T20:21:08;100190.95;;;6.08;81.85
39177;BME280;24904;52.208;21.192;2022-11-15T20:26:15;100195.38;;;6.14;82.04
39177;BME280;24904;52.208;21.192;2022-11-15T20:31:21;100184.77;;;6.13;81.73
39177;BME280;24904;52.208;21.192;2022-11-15T20:36:28;100185.48;;;6.11;81.83
39177;BME280;24904;52.208;21.192;2022-11-15T20:41:34;100188.29;;;6.10;82.04
39177;BME280;24904;52.208;21.192;2022-11-15T20:46:41;100189.73;;;6.09;81.97
39177;BME280;24904;52.208;21.192;2022-11-15T20:51:47;100191.23;;;6.06;82.00
39177;BME280;24904;52.208;21.192;2022-11-15T20:56:54;100197.73;;;6.11;81.99
39177;BME280;24904;52.208;21.192;2022-11-15T21:10:31;100183.98;;;6.12;81.80
39177;BME280;24904;52.208;21.192;2022-11-15T21:16:06;100186.55;;;6.13;81.70
39177;BME280;24904;52.208;21.192;2022-11-15T21:21:10;100182.70;;;6.06;81.64
39177;BME280;24904;52.208;21.192;2022-11-15T21:26:15;100185.36;;;6.09;81.71
39177;BME280;24904;52.208;21.192;2022-11-15T21:31:19;100179.77;;;6.07;82.00
39177;BME280;24904;52.208;21.192;2022-11-15T21:36:24;100174.94;;;6.09;82.29
39177;BME280;24904;52.208;21.192;2022-11-15T21:44:27;100168.88;;;6.16;82.25
39177;BME280;24904;52.208;21.192;2022-11-15T21:49:32;100159.70;;;6.19;82.17
39177;BME280;24904;52.208;21.192;2022-11-15T21:54:38;100147.64;;;6.17;81.93
39177;BME280;24904;52.208;21.192;2022-11-15T21:59:44;100142.27;;;6.14;81.75
39177;BME280;24904;52.208;21.192;2022-11-15T22:05:09;100139.23;;;6.14;81.75
39177;BME280;24904;52.208;21.192;2022-11-15T22:10:14;100134.58;;;6.15;82.13
39177;BME280;24904;52.208;21.192;2022-11-15T22:15:20;100126.01;;;6.15;82.27
39177;BME280;24904;52.208;21.192;2022-11-15T22:20:25;100117.13;;;6.18;82.58
39177;BME280;24904;52.208;21.192;2022-11-15T22:25:32;100109.61;;;6.25;82.49
39177;BME280;24904;52.208;21.192;2022-11-15T22:30:38;100105.52;;;6.23;82.41
39177;BME280;24904;52.208;21.192;2022-11-15T22:35:45;100098.20;;;6.24;82.36
39177;BME280;24904;52.208;21.192;2022-11-15T22:40:51;100098.04;;;6.23;82.39
39177;BME280;24904;52.208;21.192;2022-11-15T22:45:58;100098.04;;;6.20;82.39
39177;BME280;24904;52.208;21.192;2022-11-15T22:51:04;100092.42;;;6.18;82.47
39177;BME280;24904;52.208;21.192;2022-11-15T22:56:11;100084.46;;;6.17;82.58
39177;BME280;24904;52.208;21.192;2022-11-15T23:01:20;100082.34;;;6.19;82.71
39177;BME280;24904;52.208;21.192;2022-11-15T23:06:25;100079.85;;;6.19;82.64
39177;BME280;24904;52.208;21.192;2022-11-15T23:11:31;100072.03;;;6.20;82.75
39177;BME280;24904;52.208;21.192;2022-11-15T23:16:54;100072.27;;;6.18;82.76
39177;BME280;24904;52.208;21.192;2022-11-15T23:21:59;100063.42;;;6.13;82.76
39177;BME280;24904;52.208;21.192;2022-11-15T23:27:18;100061.67;;;6.15;82.93
39177;BME280;24904;52.208;21.192;2022-11-15T23:32:24;100059.73;;;6.11;82.69
39177;BME280;24904;52.208;21.192;2022-11-15T23:37:46;100073.56;;;6.17;83.10
39177;BME280;24904;52.208;21.192;2022-11-15T23:42:52;100071.36;;;6.22;83.05
39177;BME280;24904;52.208;21.192;2022-11-15T23:47:57;100059.92;;;6.19;82.67
39177;BME280;24904;52.208;21.192;2022-11-15T23:53:03;100059.95;;;6.15;82.64
39177;BME280;24904;52.208;21.192;2022-11-15T23:58:09;100061.27;;;6.14;82.87
